createdAt,value
2023-07-03T00:01:18.319Z,101005.66
2023-07-03T00:03:44.911Z,101009.06
2023-07-03T00:06:11.785Z,101004.91
2023-07-03T00:08:38.345Z,101002.25
2023-07-03T00:11:06.087Z,101004.91
2023-07-03T00:13:33.082Z,101002.25
2023-07-03T00:16:03.798Z,100991.66
2023-07-03T00:18:31.351Z,100993.13
2023-07-03T00:20:58.217Z,100985.91
2023-07-03T00:23:25.932Z,100996.22
2023-07-03T00:25:53.458Z,100991.22
2023-07-03T00:28:20.142Z,100994.75
2023-07-03T00:30:46.851Z,100991.66
2023-07-03T00:33:13.400Z,100994.28
2023-07-03T00:35:40.553Z,100988.69
2023-07-03T00:38:07.495Z,100992.09
2023-07-03T00:40:34.245Z,100992.09
2023-07-03T00:43:02.035Z,100990.59
2023-07-03T00:45:28.866Z,100995.47
2023-07-03T00:47:55.677Z,100986.78
2023-07-03T00:50:22.675Z,100992.84
2023-07-03T00:52:57.219Z,100982.63
2023-07-03T00:55:24.166Z,100989.09
2023-07-03T00:57:52.362Z,101001.22
2023-07-03T01:00:22.178Z,100989.44
2023-07-03T01:02:57.695Z,100995.16
2023-07-03T01:05:30.965Z,100989.09
2023-07-03T01:08:00.140Z,100992.91
2023-07-03T01:10:29.514Z,100996.72
2023-07-03T01:13:00.055Z,100984.59
2023-07-03T01:15:29.581Z,100990.25
2023-07-03T01:17:58.788Z,100987.59
2023-07-03T01:20:29.116Z,100984.94
2023-07-03T01:23:07.870Z,100986.09
2023-07-03T01:25:37.489Z,100981.53
2023-07-03T01:28:05.212Z,100982.69
2023-07-03T01:30:32.803Z,100985.78
2023-07-03T01:33:00.754Z,100974.84
2023-07-03T01:35:28.030Z,100982.06
2023-07-03T01:37:56.814Z,100978.25
2023-07-03T01:40:25.192Z,100972.59
2023-07-03T01:42:54.389Z,100974.19
2023-07-03T01:45:21.063Z,100974.84
2023-07-03T01:47:47.726Z,100973.69
2023-07-03T01:50:19.172Z,100969.22
2023-07-03T01:52:52.748Z,100968.16
2023-07-03T01:55:36.934Z,100966.56
2023-07-03T01:58:30.946Z,100971.97
2023-07-03T02:01:05.661Z,100962.44
2023-07-03T02:03:38.138Z,100968.22
2023-07-03T02:06:14.689Z,100962.91
2023-07-03T02:08:41.518Z,100967.81
2023-07-03T02:11:19.702Z,100968.22
2023-07-03T02:13:46.216Z,100964.06
2023-07-03T02:16:12.887Z,100971.22
2023-07-03T02:18:39.426Z,100957.53
2023-07-03T02:21:08.610Z,100966.00
2023-07-03T02:23:35.249Z,100964.41
2023-07-03T02:26:01.791Z,100968.16
2023-07-03T02:28:28.281Z,100968.56
2023-07-03T02:30:54.839Z,100967.41
2023-07-03T02:33:21.317Z,100954.47
2023-07-03T02:35:47.910Z,100959.75
2023-07-03T02:38:16.402Z,100959.09
2023-07-03T02:40:43.373Z,100954.53
2023-07-03T02:43:10.322Z,100955.81
2023-07-03T02:45:42.533Z,100958.47
2023-07-03T02:48:10.917Z,100960.25
2023-07-03T02:50:37.699Z,100950.81
2023-07-03T02:53:04.393Z,100958.88
2023-07-03T02:55:30.888Z,100953.16
2023-07-03T02:57:59.133Z,100950.38
2023-07-03T03:00:26.376Z,100954.19
2023-07-03T03:02:52.991Z,100946.69
2023-07-03T03:05:19.612Z,100946.25
2023-07-03T03:07:46.093Z,100950.09
2023-07-03T03:10:12.558Z,100948.16
2023-07-03T03:12:39.144Z,100948.91
2023-07-03T03:15:06.841Z,100943.91
2023-07-03T03:17:33.447Z,100943.16
2023-07-03T03:20:00.354Z,100946.16
2023-07-03T03:22:26.955Z,100947.66
2023-07-03T03:24:53.457Z,100942.34
2023-07-03T03:27:19.933Z,100946.50
2023-07-03T03:29:48.544Z,100951.06
2023-07-03T03:32:15.011Z,100952.97
2023-07-03T03:34:42.147Z,100949.22
2023-07-03T03:37:08.643Z,100957.94
2023-07-03T03:39:35.199Z,100947.72
2023-07-03T03:42:01.733Z,100944.03
2023-07-03T03:44:28.433Z,100941.47
2023-07-03T03:46:55.007Z,100948.25
2023-07-03T03:49:22.810Z,100946.69
2023-07-03T03:51:49.325Z,100946.25
2023-07-03T03:54:15.813Z,100951.13
2023-07-03T03:56:42.308Z,100949.34
2023-07-03T03:59:08.794Z,100949.63
2023-07-03T04:01:35.602Z,100949.34
2023-07-03T04:04:02.490Z,100954.19
2023-07-03T04:06:29.269Z,100952.28
2023-07-03T04:08:59.843Z,100952.84
2023-07-03T04:11:27.209Z,100960.81
2023-07-03T04:13:53.714Z,100960.81
2023-07-03T04:16:20.770Z,100963.47
2023-07-03T04:18:47.401Z,100966.13
2023-07-03T04:21:14.777Z,100958.47
2023-07-03T04:23:42.143Z,100971.84
2023-07-03T04:26:08.680Z,100968.50
2023-07-03T04:28:35.264Z,100965.84
2023-07-03T04:31:03.580Z,100974.69
2023-07-03T04:33:30.143Z,100970.00
2023-07-03T04:35:56.841Z,100979.53
2023-07-03T04:38:25.219Z,100975.72
2023-07-03T04:40:53.620Z,100973.41
2023-07-03T04:43:21.698Z,100985.13
2023-07-03T04:45:51.650Z,100986.59
2023-07-03T04:48:19.554Z,100982.88
2023-07-03T04:50:49.725Z,100987.44
2023-07-03T04:53:18.037Z,100987.34
2023-07-03T04:55:44.864Z,100992.97
2023-07-03T04:58:12.438Z,100988.41
2023-07-03T05:00:41.166Z,100976.63
2023-07-03T05:03:09.166Z,100980.84
2023-07-03T05:05:36.117Z,100983.94
2023-07-03T05:08:02.608Z,100985.19
2023-07-03T05:10:29.254Z,100998.47
2023-07-03T05:12:55.722Z,101002.59
2023-07-03T05:15:25.359Z,100997.28
2023-07-03T05:17:57.612Z,100999.22
2023-07-03T05:20:26.914Z,101003.75
2023-07-03T05:22:53.943Z,101004.09
2023-07-03T05:25:20.472Z,101002.53
2023-07-03T05:27:47.420Z,100999.66
2023-07-03T05:30:14.223Z,101007.56
2023-07-03T05:32:40.758Z,101002.66
2023-07-03T05:35:08.436Z,101003.75
2023-07-03T05:37:37.087Z,101009.47
2023-07-03T05:40:06.453Z,101014.03
2023-07-03T05:42:32.942Z,101011.38
2023-07-03T05:44:59.521Z,101011.38
2023-07-03T05:47:26.440Z,101017.44
2023-07-03T05:49:53.652Z,101018.06
2023-07-03T05:52:20.196Z,101008.31
2023-07-03T05:54:46.771Z,101012.00
2023-07-03T05:57:13.407Z,101013.81
2023-07-03T05:59:41.111Z,101010.63
2023-07-03T06:02:10.048Z,101017.50
2023-07-03T06:04:36.593Z,101025.47
2023-07-03T06:07:03.458Z,101018.66
2023-07-03T06:09:30.256Z,101021.31
2023-07-03T06:12:00.046Z,101017.50
2023-07-03T06:14:26.958Z,101028.88
2023-07-03T06:16:55.185Z,101025.06
2023-07-03T06:19:22.075Z,101014.09
2023-07-03T06:21:48.905Z,101017.50
2023-07-03T06:24:15.992Z,101026.63
2023-07-03T06:26:44.355Z,101025.88
2023-07-03T06:29:14.143Z,101031.19
2023-07-03T06:31:41.516Z,101030.44
2023-07-03T06:34:08.244Z,101033.84
2023-07-03T06:36:36.052Z,101028.53
2023-07-03T06:39:06.037Z,101029.28
2023-07-03T06:41:35.769Z,101026.63
2023-07-03T06:44:04.240Z,101026.63
2023-07-03T06:46:31.350Z,101031.28
2023-07-03T06:48:58.192Z,101030.66
2023-07-03T06:51:25.937Z,101026.09
2023-07-03T06:53:52.467Z,101032.03
2023-07-03T06:56:19.402Z,101032.78
2023-07-03T06:58:48.827Z,101038.41
2023-07-03T07:01:16.700Z,101031.94
2023-07-03T07:03:43.341Z,101024.31
2023-07-03T07:06:16.995Z,101033.78
2023-07-03T07:08:44.678Z,101035.69
2023-07-03T07:11:13.913Z,101036.75
2023-07-03T07:13:43.160Z,101032.63
2023-07-03T07:16:14.874Z,101042.06
2023-07-03T07:18:41.865Z,101035.59
2023-07-03T07:21:08.904Z,101046.22
2023-07-03T07:23:35.839Z,101040.16
2023-07-03T07:26:02.770Z,101038.97
2023-07-03T07:28:29.843Z,101034.84
2023-07-03T07:30:56.873Z,101037.81
2023-07-03T07:33:23.994Z,101042.38
2023-07-03T07:35:52.906Z,101048.88
2023-07-03T07:38:20.803Z,101049.28
2023-07-03T07:40:47.373Z,101045.47
2023-07-03T07:43:14.305Z,101049.59
2023-07-03T07:45:40.925Z,101056.84
2023-07-03T07:48:08.026Z,101051.09
2023-07-03T07:50:36.859Z,101056.84
2023-07-03T07:53:03.994Z,101050.78
2023-07-03T07:55:32.900Z,101066.72
2023-07-03T07:57:59.399Z,101063.31
2023-07-03T08:00:25.933Z,101056.84
2023-07-03T08:02:52.531Z,101066.72
2023-07-03T08:05:19.165Z,101053.00
2023-07-03T08:07:46.210Z,101058.31
2023-07-03T08:10:13.284Z,101053.75
2023-07-03T08:12:39.996Z,101055.66
2023-07-03T08:15:07.013Z,101047.69
2023-07-03T08:17:33.596Z,101053.75
2023-07-03T08:20:00.401Z,101055.66
2023-07-03T08:22:28.373Z,101059.06
2023-07-03T08:24:54.920Z,101059.81
2023-07-03T08:27:21.994Z,101069.69
2023-07-03T08:29:48.485Z,101075.44
2023-07-03T08:32:16.408Z,101073.09
2023-07-03T08:37:08.259Z,101083.72
2023-07-03T08:37:30.921Z,101079.88
2023-07-03T08:39:57.435Z,101074.56
2023-07-03T08:42:34.148Z,101073.09
2023-07-03T08:45:01.657Z,101062.78
2023-07-03T08:47:31.182Z,101062.78
2023-07-03T08:50:02.302Z,101063.50
2023-07-03T08:52:42.736Z,101054.81
2023-07-03T08:55:15.553Z,101042.28
2023-07-03T08:57:42.054Z,101055.88
2023-07-03T09:00:12.981Z,101056.63
2023-07-03T09:02:50.451Z,101064.94
2023-07-03T09:05:24.333Z,101078.63
2023-07-03T09:08:04.399Z,101084.69
2023-07-03T09:10:52.711Z,101079.38
2023-07-03T09:13:35.798Z,101099.13
2023-07-03T09:16:13.046Z,101091.16
2023-07-03T09:18:45.374Z,101091.16
2023-07-03T09:21:12.393Z,101079.72
2023-07-03T09:24:00.385Z,101085.78
2023-07-03T09:26:44.484Z,101085.78
2023-07-03T09:29:12.869Z,101079.72
2023-07-03T09:31:39.513Z,101067.94
2023-07-03T09:34:06.090Z,101071.31
2023-07-03T09:36:36.559Z,101083.88
2023-07-03T09:39:11.640Z,101089.91
2023-07-03T09:41:38.904Z,101104.78
2023-07-03T09:44:13.355Z,101100.97
2023-07-03T09:46:41.110Z,101102.13
2023-07-03T09:49:29.895Z,101103.28
2023-07-03T09:51:59.452Z,101102.44
2023-07-03T09:54:31.208Z,101097.56
2023-07-03T09:56:58.206Z,101098.31
2023-07-03T09:59:25.603Z,101106.69
2023-07-03T10:07:07.403Z,101109.75
2023-07-03T10:12:32.705Z,101112.81
2023-07-03T10:15:07.684Z,101115.47
2023-07-03T10:17:38.429Z,101109.41
2023-07-03T10:20:12.376Z,101121.19
2023-07-03T10:22:42.001Z,101126.50
2023-07-03T10:25:16.548Z,101138.63
2023-07-03T10:27:43.512Z,101135.66
2023-07-03T10:30:16.443Z,101136.72
2023-07-03T10:32:47.451Z,101129.16
2023-07-03T10:35:25.340Z,101130.34
2023-07-03T10:37:58.760Z,101128.84
2023-07-03T10:40:33.948Z,101127.69
2023-07-03T10:43:04.327Z,101123.53
2023-07-03T10:45:33.468Z,101129.59
2023-07-03T10:48:06.412Z,101138.63
2023-07-03T10:50:42.913Z,101137.47
2023-07-03T10:53:37.173Z,101134.47
2023-07-03T10:56:18.827Z,101131.50
2023-07-03T10:59:06.338Z,101136.81
2023-07-03T11:02:11.747Z,101132.66
2023-07-03T11:05:01.900Z,101132.66
2023-07-03T11:07:39.814Z,101125.88
2023-07-03T11:10:19.040Z,101129.25
2023-07-03T11:12:57.314Z,101132.25
2023-07-03T11:15:26.588Z,101137.97
2023-07-03T11:23:30.702Z,101135.22
2023-07-03T11:28:48.521Z,101139.38
2023-07-03T11:31:16.468Z,101137.78
2023-07-03T11:36:51.109Z,101139.28
2023-07-03T11:44:32.940Z,101130.38
2023-07-03T11:47:08.223Z,101130.06
2023-07-03T11:49:38.981Z,101129.41
2023-07-03T11:52:07.604Z,101132.81
2023-07-03T11:54:36.642Z,101131.22
2023-07-03T11:57:10.628Z,101128.25
2023-07-03T11:59:40.111Z,101129.00
2023-07-03T12:02:12.662Z,101124.84
2023-07-03T12:04:49.173Z,101131.66
2023-07-03T12:07:19.782Z,101131.66
2023-07-03T12:09:52.483Z,101135.03
2023-07-03T12:12:25.700Z,101121.03
2023-07-03T12:14:55.379Z,101125.50
2023-07-03T12:17:24.238Z,101139.09
2023-07-03T12:20:14.037Z,101122.41
2023-07-03T12:22:53.830Z,101142.28
2023-07-03T12:25:25.159Z,101138.03
2023-07-03T12:27:53.251Z,101134.94
2023-07-03T12:30:29.274Z,101138.34
2023-07-03T12:32:57.965Z,101143.75
2023-07-03T12:35:31.842Z,101144.84
2023-07-03T12:38:01.545Z,101148.22
2023-07-03T12:40:28.069Z,101156.94
2023-07-03T12:42:59.160Z,101134.53
2023-07-03T12:45:34.731Z,101143.94
2023-07-03T12:48:17.639Z,101134.13
2023-07-03T12:50:49.530Z,101148.66
2023-07-03T12:53:18.671Z,101141.09
2023-07-03T12:55:58.609Z,101148.91
2023-07-03T12:58:26.429Z,101176.94
2023-07-03T13:01:01.422Z,101141.34
2023-07-03T13:03:28.030Z,101135.78
2023-07-03T13:05:54.878Z,101138.88
2023-07-03T13:08:21.843Z,101146.09
2023-07-03T13:11:01.608Z,101142.69
2023-07-03T13:13:28.564Z,101145.34
2023-07-03T13:15:55.142Z,101145.56
2023-07-03T13:18:24.048Z,101152.06
2023-07-03T13:20:55.618Z,101136.88
2023-07-03T13:23:39.490Z,101134.31
2023-07-03T13:26:09.641Z,101135.78
2023-07-03T13:28:39.844Z,101144.09
2023-07-03T13:31:17.003Z,101143.25
2023-07-03T13:33:59.849Z,101133.88
2023-07-03T13:36:38.643Z,101147.50
2023-07-03T13:39:10.475Z,101145.25
2023-07-03T13:41:38.539Z,101157.03
2023-07-03T13:44:07.646Z,101165.34
2023-07-03T13:46:35.141Z,101169.47
2023-07-03T13:49:02.522Z,101171.72
2023-07-03T13:51:30.822Z,101177.88
2023-07-03T13:54:10.587Z,101174.16
2023-07-03T13:56:39.640Z,101175.63
2023-07-03T13:59:07.631Z,101168.75
2023-07-03T14:01:35.515Z,101169.81
2023-07-03T14:04:03.025Z,101159.19
2023-07-03T14:06:30.375Z,101159.53
2023-07-03T14:08:57.705Z,101142.50
2023-07-03T14:11:24.282Z,101144.09
2023-07-03T14:13:51.453Z,101144.41
2023-07-03T14:16:18.223Z,101137.94
2023-07-03T14:18:44.778Z,101139.53
2023-07-03T14:21:16.477Z,101150.16
2023-07-03T14:23:43.712Z,101140.34
2023-07-03T14:26:12.651Z,101132.81
2023-07-03T14:28:40.341Z,101135.56
2023-07-03T14:31:08.615Z,101132.06
2023-07-03T14:33:35.307Z,101136.78
2023-07-03T14:36:01.962Z,101126.50
2023-07-03T14:38:28.452Z,101136.59
2023-07-03T14:40:55.005Z,101132.03
2023-07-03T14:43:22.159Z,101138.41
2023-07-03T14:45:49.264Z,101117.28
2023-07-03T14:48:16.054Z,101118.19
2023-07-03T14:50:42.585Z,101122.88
2023-07-03T14:53:09.200Z,101118.66
2023-07-03T14:55:36.855Z,101129.50
2023-07-03T14:58:03.446Z,101125.69
2023-07-03T15:00:29.922Z,101128.53
2023-07-03T15:05:40.433Z,101135.03
2023-07-03T15:08:06.922Z,101107.53
2023-07-03T15:10:37.749Z,101104.31
2023-07-03T15:13:06.361Z,101110.09
2023-07-03T15:15:32.929Z,101103.19
2023-07-03T15:18:00.488Z,101094.66
2023-07-03T15:20:27.054Z,101099.41
2023-07-03T15:22:53.839Z,101102.00
2023-07-03T15:25:21.153Z,101103.38
2023-07-03T15:27:47.777Z,101097.59
2023-07-03T15:30:14.367Z,101099.34
2023-07-03T15:32:40.890Z,101100.50
2023-07-03T15:35:08.125Z,101096.59
2023-07-03T15:37:34.672Z,101093.69
2023-07-03T15:40:01.355Z,101089.13
2023-07-03T15:42:27.850Z,101083.91
2023-07-03T15:44:58.615Z,101079.88
2023-07-03T15:47:26.196Z,101081.38
2023-07-03T15:49:56.590Z,101090.38
2023-07-03T15:52:23.716Z,101093.59
2023-07-03T15:54:51.888Z,101091.56
2023-07-03T15:57:19.205Z,101100.09
2023-07-03T15:59:45.713Z,101102.63
2023-07-03T16:02:12.190Z,101105.50
2023-07-03T16:04:38.908Z,101113.69
2023-07-03T16:07:05.575Z,101115.09
2023-07-03T16:09:32.873Z,101107.28
2023-07-03T16:11:59.311Z,101108.69
2023-07-03T16:14:28.324Z,101104.19
2023-07-03T16:16:54.892Z,101087.38
2023-07-03T16:19:21.807Z,101078.63
2023-07-03T16:21:49.204Z,101080.66
2023-07-03T16:24:15.789Z,101067.78
2023-07-03T16:26:42.732Z,101071.53
2023-07-03T16:29:09.954Z,101063.72
2023-07-03T16:31:38.857Z,101063.31
2023-07-03T16:34:05.864Z,101067.03
2023-07-03T16:36:32.463Z,101059.66
2023-07-03T16:39:02.315Z,101055.59
2023-07-03T16:41:30.979Z,101073.69
2023-07-03T16:43:58.843Z,101053.00
2023-07-03T16:46:27.718Z,101039.22
2023-07-03T16:48:56.153Z,101041.19
2023-07-03T16:51:24.157Z,101041.41
2023-07-03T16:53:51.264Z,101023.75
2023-07-03T16:56:22.429Z,101026.72
2023-07-03T16:58:51.097Z,101028.34
2023-07-03T17:01:20.593Z,101026.88
2023-07-03T17:03:48.454Z,101027.59
2023-07-03T17:06:19.747Z,101016.50
2023-07-03T17:08:46.662Z,101009.28
2023-07-03T17:11:13.137Z,101030.16
2023-07-03T17:13:39.723Z,101023.94
2023-07-03T17:16:06.582Z,101028.09
2023-07-03T17:18:33.111Z,101007.06
2023-07-03T17:20:59.566Z,101019.41
2023-07-03T17:23:26.439Z,101019.09
2023-07-03T17:25:55.428Z,101010.97
2023-07-03T17:28:22.386Z,101001.25
2023-07-03T17:30:50.137Z,100998.72
2023-07-03T17:33:16.598Z,100990.84
2023-07-03T17:35:45.759Z,100992.91
2023-07-03T17:38:14.323Z,100991.19
2023-07-03T17:40:43.670Z,100998.25
2023-07-03T17:43:10.396Z,101000.16
2023-07-03T17:45:36.901Z,100985.03
2023-07-03T17:48:03.907Z,100980.78
2023-07-03T17:50:30.537Z,100977.41
2023-07-03T17:52:57.153Z,100980.50
2023-07-03T17:55:23.794Z,100973.34
2023-07-03T17:57:50.310Z,100965.81
2023-07-03T18:00:16.875Z,100972.00
2023-07-03T18:02:43.433Z,100969.34
2023-07-03T18:05:10.080Z,100974.00
2023-07-03T18:07:37.506Z,100967.97
2023-07-03T18:10:04.606Z,100980.19
2023-07-03T18:12:31.295Z,100980.31
2023-07-03T18:14:57.920Z,100972.34
2023-07-03T18:17:25.064Z,100972.03
2023-07-03T18:19:51.494Z,100961.06
2023-07-03T18:22:17.916Z,100966.06
2023-07-03T18:24:44.595Z,100957.34
2023-07-03T18:27:12.266Z,100972.66
2023-07-03T18:29:38.784Z,100954.94
2023-07-03T18:32:05.576Z,100959.50
2023-07-03T18:34:32.134Z,100950.78
2023-07-03T18:36:58.592Z,100960.34
2023-07-03T18:39:25.176Z,100960.03
2023-07-03T18:41:51.651Z,100976.09
2023-07-03T18:44:18.093Z,100962.81
2023-07-03T18:46:47.029Z,100957.50
2023-07-03T18:49:15.188Z,100982.59
2023-07-03T18:51:41.814Z,100968.97
2023-07-03T18:54:08.333Z,100978.44
2023-07-03T18:56:34.782Z,100989.41
2023-07-03T18:59:01.239Z,101008.72
2023-07-03T19:01:27.779Z,100987.78
2023-07-03T19:03:54.474Z,100994.38
2023-07-03T19:06:22.444Z,100989.06
2023-07-03T19:08:49.018Z,101001.28
2023-07-03T19:11:15.746Z,101005.09
2023-07-03T19:13:42.223Z,101003.19
2023-07-03T19:16:10.957Z,101004.34
2023-07-03T19:18:38.384Z,101017.00
2023-07-03T19:21:04.874Z,101007.47
2023-07-03T19:23:31.322Z,101013.19
2023-07-03T19:25:59.098Z,101009.03
2023-07-03T19:28:27.048Z,101005.97
2023-07-03T19:31:04.003Z,101022.03
2023-07-03T19:33:31.019Z,101013.09
2023-07-03T19:35:59.661Z,101018.06
2023-07-03T19:38:30.271Z,101019.13
2023-07-03T19:40:56.713Z,101023.72
2023-07-03T19:43:23.224Z,101038.47
2023-07-03T19:45:49.857Z,101039.97
2023-07-03T19:48:17.396Z,101052.09
2023-07-03T19:50:44.219Z,101044.88
2023-07-03T19:53:10.974Z,101052.09
2023-07-03T19:55:38.160Z,101062.72
2023-07-03T19:58:05.231Z,101059.31
2023-07-03T20:00:32.593Z,101060.47
2023-07-03T20:02:59.443Z,101072.59
2023-07-03T20:05:25.968Z,101068.91
2023-07-03T20:07:52.810Z,101058.28
2023-07-03T20:10:19.719Z,101052.50
2023-07-03T20:12:51.349Z,101054.13
2023-07-03T20:15:20.326Z,101057.53
2023-07-03T20:17:47.126Z,101047.31
2023-07-03T20:20:15.111Z,101042.00
2023-07-03T20:22:45.536Z,101046.56
2023-07-03T20:25:12.621Z,101053.06
2023-07-03T20:27:39.165Z,101042.44
2023-07-03T20:30:06.345Z,101045.81
2023-07-03T20:32:34.660Z,101042.84
2023-07-03T20:35:01.780Z,101045.94
2023-07-03T20:37:28.447Z,101042.53
2023-07-03T20:39:58.388Z,101043.25
2023-07-03T20:42:24.909Z,101043.69
2023-07-03T20:44:51.411Z,101046.00
2023-07-03T20:47:18.192Z,101051.31
2023-07-03T20:49:44.632Z,101042.63
2023-07-03T20:52:12.525Z,101046.88
2023-07-03T20:54:44.249Z,101060.91
2023-07-03T20:57:11.300Z,101077.59
2023-07-03T20:59:37.728Z,101093.19
2023-07-03T21:02:04.641Z,101081.09
2023-07-03T21:04:31.191Z,101076.94
2023-07-03T21:06:58.193Z,101068.22
2023-07-03T21:09:24.705Z,101055.69
2023-07-03T21:11:51.349Z,101064.81
2023-07-03T21:14:18.653Z,101066.41
2023-07-03T21:16:45.241Z,101065.34
2023-07-03T21:19:13.483Z,101066.09
2023-07-03T21:21:40.316Z,101066.50
2023-07-03T21:24:10.057Z,101066.91
2023-07-03T21:26:36.885Z,101079.78
2023-07-03T21:29:03.750Z,101095.72
2023-07-03T21:31:32.815Z,101103.69
2023-07-03T21:33:59.506Z,101094.22
2023-07-03T21:36:28.352Z,101094.66
2023-07-03T21:38:57.047Z,101098.50
2023-07-03T21:41:26.656Z,101098.91
2023-07-03T21:43:55.351Z,101106.03
2023-07-03T21:46:23.922Z,101098.91
2023-07-03T21:48:59.273Z,101099.25
2023-07-03T21:51:28.019Z,101111.44
2023-07-03T21:53:55.322Z,101103.47
2023-07-03T21:56:24.127Z,101110.28
2023-07-03T21:58:52.690Z,101112.94
2023-07-03T22:01:29.061Z,101112.19
2023-07-03T22:03:55.979Z,101101.63
2023-07-03T22:06:24.686Z,101103.88
2023-07-03T22:08:51.682Z,101091.75
2023-07-03T22:11:18.846Z,101093.66
2023-07-03T22:13:45.876Z,101089.53
2023-07-03T22:16:16.652Z,101084.94
2023-07-03T22:18:44.597Z,101082.72
2023-07-03T22:21:11.590Z,101076.66
2023-07-03T22:23:38.092Z,101083.16
2023-07-03T22:26:04.567Z,101080.50
2023-07-03T22:28:31.065Z,101076.38
2023-07-03T22:30:58.879Z,101082.84
2023-07-03T22:33:25.525Z,101084.34
2023-07-03T22:35:53.713Z,101080.19
2023-07-03T22:38:21.142Z,101072.63
2023-07-03T22:40:52.198Z,101078.34
2023-07-03T22:43:20.067Z,101078.34
2023-07-03T22:45:46.861Z,101084.81
2023-07-03T22:48:14.672Z,101086.31
2023-07-03T22:50:42.154Z,101083.66
2023-07-03T22:53:11.514Z,101085.97
2023-07-03T22:55:42.432Z,101087.13
2023-07-03T22:58:10.616Z,101078.00
2023-07-03T23:00:41.086Z,101081.81
2023-07-03T23:03:09.802Z,101072.41
2023-07-03T23:05:45.948Z,101078.44
2023-07-03T23:08:16.676Z,101079.59
2023-07-03T23:10:54.029Z,101085.34
2023-07-03T23:13:22.308Z,101083.88
2023-07-03T23:16:05.736Z,101099.78
2023-07-03T23:18:34.969Z,101090.66
2023-07-03T23:21:04.736Z,101076.63
2023-07-03T23:23:33.537Z,101090.34
2023-07-03T23:26:03.080Z,101105.13
2023-07-03T23:28:35.516Z,101091.09
2023-07-03T23:31:08.680Z,101103.63
2023-07-03T23:33:35.602Z,101105.19
2023-07-03T23:36:06.133Z,101098.72
2023-07-03T23:38:34.192Z,101086.94
2023-07-03T23:41:02.405Z,101095.31
2023-07-03T23:43:28.853Z,101102.53
2023-07-03T23:45:55.961Z,101093.81
2023-07-03T23:48:22.470Z,101099.53
2023-07-03T23:51:00.297Z,101098.78
2023-07-03T23:53:26.809Z,101104.09
2023-07-03T23:55:53.805Z,101106.75
2023-07-03T23:58:23.020Z,101101.44
